• Join FlightAware (Why Join?)
  • Login
  • US Flag 
04:54PM EST


 

Airport Tracker/Info


-or-


 

Live Flight TrackerFlight Track Log ✈ CSN3619 ✈ 26-Sep-2013 ✈ ZHCC / CGO - ZLYL / UYN

Flight Track Log - Related Links

Times and Time Zones

All times are in EDT time to prevent confusion due to time zone crossing. See the CSN3619 flight status page for this flight to view local times or setup timezone preferences in your user account.

Time Position Orientation Groundspeed Altitude Reporting Facility
EDT Latitude Longitude Course Direction KTS MPH feet Rate Location/Type
03:46AM 34.6045 113.7537 320° Northwest  Level Estimated
03:47AM 34.6893 113.6663 320° Northwest  Level Estimated
03:48AM 34.7740 113.5787 320° Northwest  Level Estimated
03:49AM 34.8587 113.4910 320° Northwest  Level Estimated
03:50AM 34.9433 113.4031 320° Northwest  Level Estimated
03:51AM 35.0278 113.3149 320° Northwest  Level Estimated
03:52AM 35.1123 113.2267 319° Northwest  Level Estimated
03:53AM 35.1967 113.1382 319° Northwest  Level Estimated
03:54AM 35.2811 113.0495 319° Northwest  Level Estimated
03:55AM 35.3653 112.9607 319° Northwest  Level Estimated
03:56AM 35.4496 112.8717 319° Northwest  Level Estimated
03:57AM 35.5337 112.7824 319° Northwest  Level Estimated
03:58AM 35.6178 112.6930 319° Northwest  Level Estimated
03:59AM 35.7018 112.6035 319° Northwest  Level Estimated
04:00AM 35.7858 112.5137 319° Northwest  Level Estimated
04:01AM 35.8697 112.4237 319° Northwest  Level Estimated
04:02AM 35.9535 112.3335 319° Northwest  Level Estimated
04:03AM 36.0372 112.2432 319° Northwest  Level Estimated
04:04AM 36.1209 112.1527 319° Northwest  Level Estimated
04:05AM 36.2045 112.0619 319° Northwest  Level Estimated
04:06AM 36.2881 111.9710 319° Northwest  Level Estimated
04:07AM 36.3715 111.8799 319° Northwest  Level Estimated
04:08AM 36.4549 111.7886 319° Northwest  Level Estimated
04:09AM 36.5383 111.6970 319° Northwest  Level Estimated
04:10AM 36.6216 111.6053 319° Northwest  Level Estimated
04:11AM 36.7048 111.5134 318° Northwest  Level Estimated
04:12AM 36.7879 111.4213 318° Northwest  Level Estimated
04:13AM 36.8709 111.3290 318° Northwest  Level Estimated
04:14AM 36.9539 111.2365 318° Northwest  Level Estimated
04:15AM 37.0368 111.1438 318° Northwest  Level Estimated
04:16AM 37.1197 111.0509 318° Northwest  Level Estimated
04:17AM 37.2024 110.9577 318° Northwest  Level Estimated
04:18AM 37.2851 110.8644 318° Northwest  Level Estimated
04:19AM 37.3677 110.7709 318° Northwest  Level Estimated
04:20AM 37.4503 110.6771 318° Northwest  Level Estimated
04:21AM 37.5327 110.5832 318° Northwest  Level Estimated
04:22AM 37.6152 110.4891 318° Northwest  Level Estimated
04:23AM 37.6975 110.3947 318° Northwest  Level Estimated
04:24AM 37.7797 110.3001 318° Northwest  Level Estimated
04:25AM 37.8619 110.2054 318° Northwest  Level Estimated
04:26AM 37.9440 110.1104 318° Northwest  Level Estimated
04:27AM 38.0260 110.0152 318° Northwest  Level Estimated
04:28AM 38.1079 109.9197 318° Northwest  Level Estimated
04:29AM 38.1898 109.8241 317° Northwest  Level Estimated
04:30AM 38.2692 109.7311 317° Northwest  Level Estimated
04:31AM 38.2692 109.7311 165° South  Level Estimated
04:32AM 38.2692 109.7311 165° South  Level Estimated
04:33AM 38.2692 109.7311 165° South  Level Estimated
04:34AM 38.2692 109.7311 165° South  Level Estimated
04:35AM 38.2692 109.7311 165° South  Level Estimated
04:36AM 38.2692 109.7311 165° South  Level Estimated
04:37AM 38.2692 109.7311 165° South  Level Estimated
04:38AM 38.2692 109.7311 165° South  Level Estimated
04:39AM 38.2692 109.7311 165° South  Level Estimated
04:40AM 38.2692 109.7311 165° South  Level Estimated
04:41AM 38.2692 109.7311 165° South  Level Estimated
04:42AM 38.2692 109.7311 165° South  Level Estimated
04:43AM 38.2692 109.7311 165° South  Level Estimated
04:44AM 38.2692 109.7311 165° South  Level Estimated
04:45AM 38.2692 109.7311 165° South  Level Estimated
04:46AM 38.2692 109.7311 165° South  Level Estimated